createdAt,value
2015-03-01T00:00:12.010Z,423
2015-03-01T00:00:30.684Z,415
2015-03-01T00:00:49.364Z,421
2015-03-01T00:01:08.025Z,423
2015-03-01T00:01:26.721Z,417
2015-03-01T00:01:45.406Z,423
2015-03-01T00:02:04.097Z,425
2015-03-01T00:02:22.795Z,428
2015-03-01T00:02:41.470Z,428
2015-03-01T00:03:00.136Z,417
2015-03-01T00:03:18.812Z,416
2015-03-01T00:03:37.503Z,423
2015-03-01T00:03:56.164Z,430
2015-03-01T00:04:14.842Z,422
2015-03-01T00:04:33.538Z,427
2015-03-01T00:04:52.227Z,425
2015-03-01T00:05:10.895Z,423
2015-03-01T00:05:29.584Z,425
2015-03-01T00:05:48.259Z,420
2015-03-01T00:06:06.944Z,423
2015-03-01T00:06:25.618Z,427
2015-03-01T00:06:44.295Z,430
2015-03-01T00:07:02.973Z,413
2015-03-01T00:07:21.635Z,422
2015-03-01T00:07:40.330Z,424
2015-03-01T00:07:59.005Z,420
2015-03-01T00:08:17.688Z,415
2015-03-01T00:08:36.367Z,424
2015-03-01T00:08:55.056Z,430
2015-03-01T00:09:13.729Z,429
2015-03-01T00:09:32.422Z,424
2015-03-01T00:09:51.107Z,427
2015-03-01T00:10:09.793Z,431
2015-03-01T00:10:28.472Z,403
2015-03-01T00:10:47.141Z,424
2015-03-01T00:11:05.844Z,424
2015-03-01T00:11:24.526Z,422
2015-03-01T00:11:43.211Z,421
2015-03-01T00:12:01.871Z,427
2015-03-01T00:12:20.559Z,425
2015-03-01T00:12:39.243Z,422
2015-03-01T00:12:57.936Z,417
2015-03-01T00:13:16.611Z,575
2015-03-01T00:13:35.278Z,420
2015-03-01T00:13:53.955Z,434
2015-03-01T00:14:12.628Z,467
2015-03-01T00:14:31.319Z,478
2015-03-01T00:14:49.994Z,427
2015-03-01T00:15:08.674Z,410
2015-03-01T00:15:27.358Z,429
2015-03-01T00:15:46.029Z,425
2015-03-01T00:16:04.709Z,430
2015-03-01T00:16:23.398Z,426
2015-03-01T00:16:42.094Z,431
2015-03-01T00:17:00.751Z,424
2015-03-01T00:17:19.450Z,422
2015-03-01T00:17:38.135Z,420
2015-03-01T00:17:56.813Z,430
2015-03-01T00:18:15.474Z,426
2015-03-01T00:18:34.158Z,424
2015-03-01T00:18:52.836Z,425
2015-03-01T00:19:11.515Z,420
2015-03-01T00:19:30.192Z,425
2015-03-01T00:19:48.867Z,430
2015-03-01T00:20:07.548Z,428
2015-03-01T00:20:26.226Z,425
2015-03-01T00:20:44.911Z,432
2015-03-01T00:21:03.592Z,428
2015-03-01T00:21:22.275Z,423
2015-03-01T00:21:40.955Z,425
2015-03-01T00:21:59.643Z,430
2015-03-01T00:22:18.298Z,427
2015-03-01T00:22:36.973Z,433
2015-03-01T00:22:55.653Z,424
2015-03-01T00:23:14.181Z,428
2015-03-01T00:23:32.883Z,426
2015-03-01T00:23:51.547Z,436
2015-03-01T00:24:10.090Z,429
2015-03-01T00:24:28.776Z,427
2015-03-01T00:24:47.457Z,423
2015-03-01T00:25:06.118Z,430
2015-03-01T00:25:24.654Z,433
2015-03-01T00:25:43.335Z,427
2015-03-01T00:26:02.004Z,427
2015-03-01T00:26:20.694Z,418
2015-03-01T00:26:39.374Z,428
2015-03-01T00:26:58.051Z,425
2015-03-01T00:27:16.718Z,423
2015-03-01T00:27:35.411Z,430
2015-03-01T00:27:54.090Z,435
2015-03-01T00:28:12.778Z,427
2015-03-01T00:28:31.445Z,430
2015-03-01T00:28:50.137Z,427
2015-03-01T00:29:08.798Z,427
2015-03-01T00:29:27.475Z,424
2015-03-01T00:29:46.169Z,427
2015-03-01T00:30:04.843Z,434
2015-03-01T00:30:23.357Z,430
2015-03-01T00:30:42.035Z,428
2015-03-01T00:31:00.714Z,429
2015-03-01T00:31:19.386Z,433
2015-03-01T00:31:38.069Z,428
2015-03-01T00:31:56.757Z,429
2015-03-01T00:32:15.448Z,429
2015-03-01T00:32:34.126Z,427
2015-03-01T00:32:52.792Z,430
2015-03-01T00:33:11.479Z,427
2015-03-01T00:33:30.168Z,431
2015-03-01T00:33:48.829Z,422
2015-03-01T00:34:07.519Z,425
2015-03-01T00:34:26.195Z,429
2015-03-01T00:34:44.885Z,426
2015-03-01T00:35:03.539Z,427
2015-03-01T00:35:22.240Z,425
2015-03-01T00:35:40.913Z,423
2015-03-01T00:35:59.605Z,430
2015-03-01T00:36:18.289Z,428
2015-03-01T00:36:36.954Z,433
2015-03-01T00:36:55.644Z,429
2015-03-01T00:37:14.321Z,434
2015-03-01T00:37:33.006Z,428
2015-03-01T00:37:51.678Z,431
2015-03-01T00:38:10.355Z,430
2015-03-01T00:38:29.026Z,432
2015-03-01T00:38:47.706Z,433
2015-03-01T00:39:06.378Z,429
2015-03-01T00:39:25.086Z,428
2015-03-01T00:39:43.741Z,428
2015-03-01T00:40:02.430Z,428
2015-03-01T00:40:21.118Z,430
2015-03-01T00:40:39.799Z,430
2015-03-01T00:40:58.477Z,429
2015-03-01T00:41:17.158Z,434
2015-03-01T00:41:35.841Z,429
2015-03-01T00:41:54.515Z,424
2015-03-01T00:42:13.177Z,430
2015-03-01T00:42:31.864Z,431
2015-03-01T00:42:50.374Z,427
2015-03-01T00:43:09.073Z,431
2015-03-01T00:43:27.775Z,426
2015-03-01T00:43:46.428Z,428
2015-03-01T00:44:05.114Z,428
2015-03-01T00:44:23.806Z,429
2015-03-01T00:44:42.494Z,425
2015-03-01T00:45:01.153Z,428
2015-03-01T00:45:19.842Z,427
2015-03-01T00:45:38.517Z,434
2015-03-01T00:45:57.199Z,425
2015-03-01T00:46:15.883Z,431
2015-03-01T00:46:34.557Z,430
2015-03-01T00:46:53.232Z,431
2015-03-01T00:47:11.911Z,440
2015-03-01T00:47:30.595Z,432
2015-03-01T00:47:49.280Z,428
2015-03-01T00:48:07.963Z,427
2015-03-01T00:48:26.631Z,430
2015-03-01T00:48:45.322Z,429
2015-03-01T00:49:04.005Z,430
2015-03-01T00:49:22.680Z,431
2015-03-01T00:49:41.372Z,432
2015-03-01T00:50:00.042Z,431
2015-03-01T00:50:18.726Z,431
2015-03-01T00:50:37.393Z,428
2015-03-01T00:50:56.059Z,430
2015-03-01T00:51:14.739Z,437
2015-03-01T00:51:33.426Z,430
2015-03-01T00:51:52.118Z,430
2015-03-01T00:52:10.802Z,428
2015-03-01T00:52:29.479Z,425
2015-03-01T00:52:48.144Z,432
2015-03-01T00:53:06.845Z,440
2015-03-01T00:53:25.495Z,436
2015-03-01T00:53:44.181Z,435
2015-03-01T00:54:02.848Z,438
2015-03-01T00:54:21.542Z,433
2015-03-01T00:54:40.199Z,431
2015-03-01T00:54:58.890Z,434
2015-03-01T00:55:17.610Z,434
2015-03-01T00:55:36.279Z,431
2015-03-01T00:55:54.981Z,429
2015-03-01T00:56:13.649Z,433
2015-03-01T00:56:32.342Z,427
2015-03-01T00:56:51.025Z,439
2015-03-01T00:57:09.708Z,433
2015-03-01T00:57:28.387Z,436
2015-03-01T00:57:47.049Z,430
2015-03-01T00:58:05.745Z,433
2015-03-01T00:58:24.407Z,431
2015-03-01T00:58:43.101Z,429
2015-03-01T00:59:01.781Z,430
2015-03-01T00:59:20.455Z,430
2015-03-01T00:59:39.155Z,431
2015-03-01T00:59:57.822Z,438
2015-03-01T01:00:16.507Z,428
2015-03-01T01:00:35.188Z,427
2015-03-01T01:00:53.858Z,428
2015-03-01T01:01:12.548Z,433
2015-03-01T01:01:31.222Z,437
2015-03-01T01:01:49.898Z,432
2015-03-01T01:02:08.587Z,430
2015-03-01T01:02:27.260Z,436
2015-03-01T01:02:45.958Z,436
2015-03-01T01:03:04.631Z,434
2015-03-01T01:03:23.328Z,437
2015-03-01T01:03:42.005Z,433
2015-03-01T01:04:00.666Z,436
2015-03-01T01:04:19.356Z,434
2015-03-01T01:04:38.037Z,428
2015-03-01T01:04:56.713Z,434
2015-03-01T01:05:15.388Z,434
2015-03-01T01:05:34.063Z,431
2015-03-01T01:05:52.725Z,427
2015-03-01T01:06:11.422Z,438
2015-03-01T01:06:30.087Z,433
2015-03-01T01:06:48.772Z,432
2015-03-01T01:07:07.459Z,438
2015-03-01T01:07:26.146Z,438
2015-03-01T01:07:44.847Z,440
2015-03-01T01:08:03.519Z,431
2015-03-01T01:08:22.193Z,432
2015-03-01T01:08:40.875Z,435
2015-03-01T01:08:59.551Z,431
2015-03-01T01:09:18.228Z,437
2015-03-01T01:09:36.900Z,434
2015-03-01T01:09:55.595Z,437
2015-03-01T01:10:14.282Z,432
2015-03-01T01:10:32.966Z,432
2015-03-01T01:10:51.660Z,441
2015-03-01T01:11:10.352Z,434
2015-03-01T01:11:29.035Z,437
2015-03-01T01:11:47.723Z,436
2015-03-01T01:12:06.402Z,436
2015-03-01T01:12:25.074Z,434
2015-03-01T01:12:43.735Z,435
2015-03-01T01:13:02.431Z,431
2015-03-01T01:13:21.090Z,431
2015-03-01T01:13:39.777Z,436
2015-03-01T01:13:58.456Z,440
2015-03-01T01:14:17.134Z,436
2015-03-01T01:14:35.819Z,436
2015-03-01T01:14:54.504Z,428
2015-03-01T01:15:13.188Z,434
2015-03-01T01:15:31.876Z,434
2015-03-01T01:15:50.556Z,433
2015-03-01T01:16:09.236Z,436
2015-03-01T01:16:27.907Z,432
2015-03-01T01:16:46.591Z,434
2015-03-01T01:17:05.252Z,435
2015-03-01T01:17:23.942Z,438
2015-03-01T01:17:42.616Z,433
2015-03-01T01:18:01.293Z,440
2015-03-01T01:18:19.974Z,437
2015-03-01T01:18:38.644Z,437
2015-03-01T01:18:57.346Z,434
2015-03-01T01:19:16.017Z,442
2015-03-01T01:19:34.718Z,435
2015-03-01T01:19:53.374Z,437
2015-03-01T01:20:12.065Z,432
2015-03-01T01:20:30.748Z,435
2015-03-01T01:20:49.404Z,431
2015-03-01T01:21:08.096Z,434
2015-03-01T01:21:26.774Z,437
2015-03-01T01:21:45.442Z,435
2015-03-01T01:22:04.106Z,436
2015-03-01T01:22:22.799Z,438
2015-03-01T01:22:41.479Z,437
2015-03-01T01:23:00.163Z,436
2015-03-01T01:23:18.834Z,437
2015-03-01T01:23:37.529Z,433
2015-03-01T01:23:56.199Z,436
2015-03-01T01:24:14.880Z,431
2015-03-01T01:24:33.539Z,438
2015-03-01T01:24:52.229Z,439
2015-03-01T01:25:10.919Z,442
2015-03-01T01:25:29.574Z,438
2015-03-01T01:25:48.273Z,436
2015-03-01T01:26:06.950Z,432
2015-03-01T01:26:25.626Z,430
2015-03-01T01:26:44.316Z,429
2015-03-01T01:27:02.998Z,431
2015-03-01T01:27:21.528Z,446
2015-03-01T01:27:40.217Z,441
2015-03-01T01:27:58.885Z,439
2015-03-01T01:28:17.572Z,435
2015-03-01T01:28:36.239Z,432
2015-03-01T01:28:54.924Z,442
2015-03-01T01:29:13.612Z,443
2015-03-01T01:29:32.285Z,434
2015-03-01T01:29:50.947Z,437
2015-03-01T01:30:09.634Z,434
2015-03-01T01:30:28.319Z,439
2015-03-01T01:30:47.013Z,436
2015-03-01T01:31:05.693Z,431
2015-03-01T01:31:24.387Z,434
2015-03-01T01:31:43.050Z,437
2015-03-01T01:32:01.728Z,434
2015-03-01T01:32:20.424Z,436
2015-03-01T01:32:39.095Z,438
2015-03-01T01:32:57.779Z,442
2015-03-01T01:33:16.462Z,433
2015-03-01T01:33:35.133Z,440
2015-03-01T01:33:53.799Z,438
2015-03-01T01:34:12.494Z,443
2015-03-01T01:34:31.164Z,440
2015-03-01T01:34:49.849Z,433
2015-03-01T01:35:08.525Z,439
2015-03-01T01:35:27.217Z,440
2015-03-01T01:35:45.891Z,438
2015-03-01T01:36:04.568Z,438
2015-03-01T01:36:23.237Z,437
2015-03-01T01:36:41.932Z,442
2015-03-01T01:37:00.599Z,438
2015-03-01T01:37:19.270Z,443
2015-03-01T01:37:37.956Z,430
2015-03-01T01:37:56.636Z,438
2015-03-01T01:38:15.330Z,433
2015-03-01T01:38:34.005Z,438
2015-03-01T01:38:52.682Z,435
2015-03-01T01:39:11.355Z,443
2015-03-01T01:39:30.033Z,436
2015-03-01T01:39:48.714Z,438
2015-03-01T01:40:07.389Z,435
2015-03-01T01:40:26.047Z,442
2015-03-01T01:40:44.741Z,437
2015-03-01T01:41:03.418Z,441
2015-03-01T01:41:22.099Z,438
2015-03-01T01:41:40.787Z,435
2015-03-01T01:41:59.458Z,434
2015-03-01T01:42:18.148Z,434
2015-03-01T01:42:36.835Z,441
2015-03-01T01:42:55.493Z,435
2015-03-01T01:43:14.187Z,439
2015-03-01T01:43:32.850Z,436
2015-03-01T01:43:51.530Z,446
2015-03-01T01:44:10.210Z,442
2015-03-01T01:44:28.893Z,436
2015-03-01T01:44:47.575Z,436
2015-03-01T01:45:06.246Z,438
2015-03-01T01:45:24.910Z,444
2015-03-01T01:45:43.584Z,438
2015-03-01T01:46:02.268Z,435
2015-03-01T01:46:20.968Z,416
2015-03-01T01:46:39.642Z,438
2015-03-01T01:46:58.322Z,437
2015-03-01T01:47:17.005Z,438
2015-03-01T01:47:35.686Z,438
2015-03-01T01:47:54.353Z,443
2015-03-01T01:48:13.032Z,437
2015-03-01T01:48:31.560Z,437
2015-03-01T01:48:50.225Z,444
2015-03-01T01:49:08.923Z,438
2015-03-01T01:49:27.598Z,437
2015-03-01T01:49:46.267Z,440
2015-03-01T01:50:04.939Z,435
2015-03-01T01:50:23.619Z,438
2015-03-01T01:50:42.287Z,448
2015-03-01T01:51:00.980Z,440
2015-03-01T01:51:19.669Z,444
2015-03-01T01:51:38.346Z,438
2015-03-01T01:51:57.007Z,436
2015-03-01T01:52:15.703Z,436
2015-03-01T01:52:34.378Z,436
2015-03-01T01:52:53.038Z,436
2015-03-01T01:53:11.737Z,437
2015-03-01T01:53:30.394Z,444
2015-03-01T01:53:49.079Z,436
2015-03-01T01:54:07.758Z,441
2015-03-01T01:54:26.428Z,438
2015-03-01T01:54:45.108Z,441
2015-03-01T01:55:03.812Z,438
2015-03-01T01:55:22.480Z,445
2015-03-01T01:55:41.176Z,437
2015-03-01T01:55:59.835Z,439
2015-03-01T01:56:18.529Z,440
2015-03-01T01:56:37.202Z,435
2015-03-01T01:56:55.868Z,447
2015-03-01T01:57:14.544Z,438
2015-03-01T01:57:33.244Z,441
2015-03-01T01:57:51.921Z,437
2015-03-01T01:58:10.597Z,439
2015-03-01T01:58:29.268Z,442
2015-03-01T01:58:47.943Z,439
2015-03-01T01:59:06.623Z,441
2015-03-01T01:59:25.302Z,442
2015-03-01T01:59:43.974Z,446
2015-03-01T02:00:02.641Z,447
2015-03-01T02:00:21.320Z,441
2015-03-01T02:00:40.007Z,442
2015-03-01T02:00:58.689Z,444
2015-03-01T02:01:17.350Z,443
2015-03-01T02:01:36.031Z,439
2015-03-01T02:01:54.720Z,443
2015-03-01T02:02:13.388Z,436
2015-03-01T02:02:32.084Z,442
2015-03-01T02:02:50.749Z,442
2015-03-01T02:03:09.441Z,441
2015-03-01T02:03:28.134Z,446
2015-03-01T02:03:46.799Z,442
2015-03-01T02:04:05.486Z,446
2015-03-01T02:04:24.015Z,445
2015-03-01T02:04:42.686Z,441
2015-03-01T02:05:01.371Z,438
2015-03-01T02:05:20.040Z,441
2015-03-01T02:05:38.712Z,435
2015-03-01T02:05:57.397Z,429
2015-03-01T02:06:16.058Z,438
2015-03-01T02:06:34.758Z,432
2015-03-01T02:06:53.420Z,443
2015-03-01T02:07:12.097Z,438
2015-03-01T02:07:30.787Z,438
2015-03-01T02:07:49.465Z,440
2015-03-01T02:08:08.141Z,438
2015-03-01T02:08:26.830Z,448
2015-03-01T02:08:45.510Z,445
2015-03-01T02:09:04.173Z,442
2015-03-01T02:09:22.868Z,443
2015-03-01T02:09:41.539Z,441
2015-03-01T02:10:00.221Z,443
2015-03-01T02:10:18.902Z,449
2015-03-01T02:10:37.565Z,441
2015-03-01T02:10:56.247Z,437
2015-03-01T02:11:14.950Z,446
2015-03-01T02:11:33.619Z,442
2015-03-01T02:11:52.281Z,442
2015-03-01T02:12:10.969Z,444
2015-03-01T02:12:29.653Z,439
2015-03-01T02:12:48.323Z,442
2015-03-01T02:13:07.000Z,441
2015-03-01T02:13:25.678Z,440
2015-03-01T02:13:44.355Z,443
2015-03-01T02:14:03.034Z,451
2015-03-01T02:14:21.717Z,443
2015-03-01T02:14:40.398Z,439
2015-03-01T02:14:59.091Z,442
2015-03-01T02:15:17.757Z,445
2015-03-01T02:15:36.454Z,438
2015-03-01T02:15:55.112Z,440
2015-03-01T02:16:13.792Z,441
2015-03-01T02:16:32.484Z,448
2015-03-01T02:16:51.141Z,439
2015-03-01T02:17:09.831Z,440
2015-03-01T02:17:28.495Z,448
2015-03-01T02:17:47.188Z,441
2015-03-01T02:18:05.869Z,439
2015-03-01T02:18:24.548Z,444
2015-03-01T02:18:43.212Z,444
2015-03-01T02:19:01.897Z,443
2015-03-01T02:19:20.567Z,450
2015-03-01T02:19:39.266Z,447
2015-03-01T02:19:57.922Z,439
2015-03-01T02:20:16.634Z,446
2015-03-01T02:20:35.299Z,444
2015-03-01T02:20:53.960Z,440
2015-03-01T02:21:12.647Z,431
2015-03-01T02:21:31.327Z,440
2015-03-01T02:21:50.004Z,439
2015-03-01T02:22:08.689Z,442
2015-03-01T02:22:27.355Z,445
2015-03-01T02:22:46.044Z,439
2015-03-01T02:23:04.705Z,444
2015-03-01T02:23:23.397Z,434
2015-03-01T02:23:42.081Z,443
2015-03-01T02:24:00.757Z,442
2015-03-01T02:24:19.425Z,442
2015-03-01T02:24:38.103Z,446
2015-03-01T02:24:56.778Z,444
2015-03-01T02:25:15.449Z,438
2015-03-01T02:25:34.126Z,441
2015-03-01T02:25:52.812Z,446
2015-03-01T02:26:11.498Z,446
2015-03-01T02:26:30.169Z,449
2015-03-01T02:26:48.858Z,437
2015-03-01T02:27:07.532Z,445
2015-03-01T02:27:26.208Z,447
2015-03-01T02:27:44.886Z,444
2015-03-01T02:28:03.562Z,445
2015-03-01T02:28:22.223Z,443
2015-03-01T02:28:40.915Z,443
2015-03-01T02:28:59.593Z,450
2015-03-01T02:29:18.259Z,436
2015-03-01T02:29:36.946Z,442
2015-03-01T02:29:55.630Z,443
2015-03-01T02:30:14.135Z,443
2015-03-01T02:30:32.836Z,437
2015-03-01T02:30:51.516Z,446
2015-03-01T02:31:10.190Z,444
2015-03-01T02:31:28.867Z,439
2015-03-01T02:31:47.542Z,444
2015-03-01T02:32:06.204Z,443
2015-03-01T02:32:24.896Z,444
2015-03-01T02:32:43.558Z,449
2015-03-01T02:33:02.252Z,445
2015-03-01T02:33:20.930Z,448
2015-03-01T02:33:39.609Z,444
2015-03-01T02:33:58.288Z,438
2015-03-01T02:34:16.976Z,437
2015-03-01T02:34:35.635Z,445
2015-03-01T02:34:54.310Z,442
2015-03-01T02:35:12.999Z,449
2015-03-01T02:35:31.681Z,448
2015-03-01T02:35:50.355Z,450
2015-03-01T02:36:09.019Z,441
2015-03-01T02:36:27.714Z,440
2015-03-01T02:36:46.392Z,443
2015-03-01T02:37:05.056Z,444
2015-03-01T02:37:23.738Z,446
2015-03-01T02:37:42.402Z,449
2015-03-01T02:38:01.090Z,451
2015-03-01T02:38:19.758Z,445
2015-03-01T02:38:38.473Z,442
2015-03-01T02:38:57.133Z,446
2015-03-01T02:39:15.824Z,448
2015-03-01T02:39:34.501Z,443
2015-03-01T02:39:53.162Z,445
2015-03-01T02:40:11.835Z,448
2015-03-01T02:40:30.530Z,444
2015-03-01T02:40:49.205Z,449
2015-03-01T02:41:07.867Z,442
2015-03-01T02:41:26.547Z,444
2015-03-01T02:41:45.224Z,442
2015-03-01T02:42:03.925Z,449
2015-03-01T02:42:22.604Z,448
2015-03-01T02:42:41.287Z,448
2015-03-01T02:42:59.979Z,447
2015-03-01T02:43:18.649Z,444
2015-03-01T02:43:37.314Z,440
2015-03-01T02:43:56.007Z,446
2015-03-01T02:44:14.667Z,447
2015-03-01T02:44:33.361Z,448
2015-03-01T02:44:52.030Z,440
2015-03-01T02:45:10.726Z,444
2015-03-01T02:45:29.409Z,444
2015-03-01T02:45:48.071Z,445
2015-03-01T02:46:06.761Z,439
2015-03-01T02:46:25.444Z,447
2015-03-01T02:46:44.125Z,448
2015-03-01T02:47:02.807Z,447
2015-03-01T02:47:21.489Z,450
2015-03-01T02:47:40.160Z,441
2015-03-01T02:47:58.838Z,446
2015-03-01T02:48:17.516Z,449
2015-03-01T02:48:36.199Z,448
2015-03-01T02:48:54.863Z,443
2015-03-01T02:49:13.559Z,443
2015-03-01T02:49:32.229Z,444
2015-03-01T02:49:50.925Z,442
2015-03-01T02:50:09.606Z,444
2015-03-01T02:50:28.275Z,446
2015-03-01T02:50:46.962Z,443
2015-03-01T02:51:05.620Z,439
2015-03-01T02:51:24.316Z,444
2015-03-01T02:51:42.991Z,442
2015-03-01T02:52:01.662Z,448
2015-03-01T02:52:20.328Z,444
2015-03-01T02:52:39.021Z,449
2015-03-01T02:52:57.697Z,450
2015-03-01T02:53:16.378Z,439
2015-03-01T02:53:35.043Z,450
2015-03-01T02:53:53.737Z,446
2015-03-01T02:54:12.390Z,445
2015-03-01T02:54:31.086Z,446
2015-03-01T02:54:49.750Z,444
2015-03-01T02:55:08.439Z,447
2015-03-01T02:55:27.108Z,445
2015-03-01T02:55:45.790Z,447
2015-03-01T02:56:04.467Z,446
2015-03-01T02:56:23.166Z,443
2015-03-01T02:56:41.843Z,448
2015-03-01T02:57:00.523Z,448
2015-03-01T02:57:19.182Z,442
2015-03-01T02:57:37.855Z,446
2015-03-01T02:57:56.544Z,450
2015-03-01T02:58:15.207Z,448
2015-03-01T02:58:33.897Z,444
2015-03-01T02:58:52.568Z,446
2015-03-01T02:59:11.259Z,447
2015-03-01T02:59:29.916Z,448
2015-03-01T02:59:48.612Z,450
2015-03-01T03:00:07.292Z,447
2015-03-01T03:00:25.962Z,442
2015-03-01T03:00:44.660Z,451
2015-03-01T03:01:03.335Z,446
2015-03-01T03:01:22.031Z,446
2015-03-01T03:01:40.689Z,450
2015-03-01T03:01:59.366Z,449
2015-03-01T03:02:18.061Z,442
2015-03-01T03:02:36.737Z,447
2015-03-01T03:02:55.411Z,448
2015-03-01T03:03:14.077Z,447
2015-03-01T03:03:32.760Z,446
2015-03-01T03:03:51.454Z,449
2015-03-01T03:04:10.115Z,446
2015-03-01T03:04:28.796Z,448
2015-03-01T03:04:47.476Z,448
2015-03-01T03:05:06.170Z,447
2015-03-01T03:05:24.843Z,454
2015-03-01T03:05:43.521Z,451
2015-03-01T03:06:02.198Z,452
2015-03-01T03:06:20.866Z,450
2015-03-01T03:06:39.562Z,449
2015-03-01T03:06:58.233Z,440
2015-03-01T03:07:16.899Z,448
2015-03-01T03:07:35.575Z,451
2015-03-01T03:07:54.255Z,443
2015-03-01T03:08:12.935Z,448
2015-03-01T03:08:31.631Z,443
2015-03-01T03:08:50.317Z,451
2015-03-01T03:09:08.987Z,448
2015-03-01T03:09:27.686Z,447
2015-03-01T03:09:46.356Z,443
2015-03-01T03:10:05.042Z,444
2015-03-01T03:10:23.702Z,444
2015-03-01T03:10:42.393Z,449
2015-03-01T03:11:01.074Z,449
2015-03-01T03:11:19.755Z,449
2015-03-01T03:11:38.434Z,451
2015-03-01T03:11:57.118Z,450
2015-03-01T03:12:15.794Z,448
2015-03-01T03:12:34.468Z,452
2015-03-01T03:12:53.173Z,455
2015-03-01T03:13:11.858Z,444
2015-03-01T03:13:30.540Z,451
2015-03-01T03:13:49.201Z,447
2015-03-01T03:14:07.884Z,446
2015-03-01T03:14:26.557Z,448
2015-03-01T03:14:45.227Z,447
2015-03-01T03:15:03.901Z,449
2015-03-01T03:15:22.593Z,449
2015-03-01T03:15:41.268Z,441
2015-03-01T03:15:59.938Z,449
2015-03-01T03:16:18.641Z,448
2015-03-01T03:16:37.310Z,445
2015-03-01T03:16:55.993Z,447
2015-03-01T03:17:14.674Z,445
2015-03-01T03:17:33.366Z,444
2015-03-01T03:17:52.046Z,450
2015-03-01T03:18:10.720Z,450
2015-03-01T03:18:29.395Z,452
2015-03-01T03:18:48.076Z,449
2015-03-01T03:19:06.755Z,449
2015-03-01T03:19:25.416Z,444
2015-03-01T03:19:44.090Z,449
2015-03-01T03:20:02.632Z,447
2015-03-01T03:20:21.312Z,453
2015-03-01T03:20:39.998Z,451
2015-03-01T03:20:58.675Z,447
2015-03-01T03:21:17.366Z,449
2015-03-01T03:21:36.038Z,443
2015-03-01T03:21:54.721Z,455
2015-03-01T03:22:13.395Z,447
2015-03-01T03:22:32.071Z,449
2015-03-01T03:22:50.748Z,450
2015-03-01T03:23:09.427Z,457
2015-03-01T03:23:28.102Z,445
2015-03-01T03:23:46.780Z,452
2015-03-01T03:24:05.466Z,446
2015-03-01T03:24:24.149Z,449
2015-03-01T03:24:42.829Z,447
2015-03-01T03:25:01.508Z,449
2015-03-01T03:25:20.183Z,452
2015-03-01T03:25:38.880Z,451
2015-03-01T03:25:57.548Z,455
2015-03-01T03:26:16.222Z,448
2015-03-01T03:26:34.897Z,446
2015-03-01T03:26:53.581Z,450
2015-03-01T03:27:12.247Z,442
2015-03-01T03:27:30.939Z,446
2015-03-01T03:27:49.602Z,446
2015-03-01T03:28:08.290Z,445
2015-03-01T03:28:26.965Z,448
2015-03-01T03:28:45.650Z,446
2015-03-01T03:29:04.334Z,452
2015-03-01T03:29:23.015Z,452
2015-03-01T03:29:41.685Z,446
2015-03-01T03:30:00.373Z,448
2015-03-01T03:30:19.032Z,449
2015-03-01T03:30:37.715Z,447
2015-03-01T03:30:56.389Z,453
2015-03-01T03:31:15.089Z,450
2015-03-01T03:31:33.762Z,450
2015-03-01T03:31:52.440Z,454
2015-03-01T03:32:11.106Z,452
2015-03-01T03:32:29.805Z,451
2015-03-01T03:32:48.499Z,448
2015-03-01T03:33:07.174Z,454
2015-03-01T03:33:25.863Z,451
2015-03-01T03:33:44.535Z,450
2015-03-01T03:34:03.216Z,450
2015-03-01T03:34:21.884Z,451
2015-03-01T03:34:40.565Z,448
2015-03-01T03:34:59.236Z,450
2015-03-01T03:35:17.910Z,451
2015-03-01T03:35:36.595Z,452
2015-03-01T03:35:55.249Z,447
2015-03-01T03:36:13.947Z,453
2015-03-01T03:36:32.636Z,449
2015-03-01T03:36:51.313Z,451
2015-03-01T03:37:10.001Z,450
2015-03-01T03:37:28.667Z,452
2015-03-01T03:37:47.345Z,447
2015-03-01T03:38:06.034Z,447
2015-03-01T03:38:24.703Z,456
2015-03-01T03:38:43.396Z,451
2015-03-01T03:39:02.062Z,455
2015-03-01T03:39:20.757Z,448
2015-03-01T03:39:39.427Z,448
2015-03-01T03:39:58.105Z,452
2015-03-01T03:40:16.781Z,451
2015-03-01T03:40:35.470Z,451
2015-03-01T03:40:54.155Z,451
2015-03-01T03:41:12.831Z,453
2015-03-01T03:41:31.511Z,447
2015-03-01T03:41:50.185Z,447
2015-03-01T03:42:08.862Z,449
2015-03-01T03:42:27.535Z,453
2015-03-01T03:42:46.226Z,448
2015-03-01T03:43:04.883Z,444
2015-03-01T03:43:23.559Z,450
2015-03-01T03:43:42.263Z,452
2015-03-01T03:44:00.940Z,443
2015-03-01T03:44:19.624Z,451
2015-03-01T03:44:38.318Z,452
2015-03-01T03:44:56.994Z,456
2015-03-01T03:45:15.679Z,470
2015-03-01T03:45:34.345Z,457
2015-03-01T03:45:53.027Z,457
2015-03-01T03:46:11.698Z,453
2015-03-01T03:46:30.374Z,451
2015-03-01T03:46:49.048Z,455
2015-03-01T03:47:07.724Z,455
2015-03-01T03:47:26.400Z,455
2015-03-01T03:47:45.066Z,454
2015-03-01T03:48:03.765Z,447
2015-03-01T03:48:22.456Z,451
2015-03-01T03:48:41.132Z,449
2015-03-01T03:48:59.805Z,452
2015-03-01T03:49:18.469Z,456
2015-03-01T03:49:37.151Z,456
2015-03-01T03:49:55.838Z,449
2015-03-01T03:50:14.539Z,450
2015-03-01T03:50:33.211Z,452
2015-03-01T03:50:51.908Z,451
2015-03-01T03:51:10.588Z,458
2015-03-01T03:51:29.279Z,451
2015-03-01T03:51:47.967Z,452
2015-03-01T03:52:06.634Z,452
2015-03-01T03:52:25.315Z,453
2015-03-01T03:52:44.000Z,457
2015-03-01T03:53:02.700Z,446
2015-03-01T03:53:21.373Z,445
2015-03-01T03:53:40.056Z,447
2015-03-01T03:53:58.735Z,478
2015-03-01T03:54:17.416Z,451
2015-03-01T03:54:36.097Z,447
2015-03-01T03:54:54.774Z,464
2015-03-01T03:55:13.450Z,466
2015-03-01T03:55:32.119Z,450
2015-03-01T03:55:50.814Z,451
2015-03-01T03:56:09.508Z,449
2015-03-01T03:56:28.187Z,455
2015-03-01T03:56:46.867Z,452
2015-03-01T03:57:05.550Z,448
2015-03-01T03:57:24.206Z,457
2015-03-01T03:57:42.885Z,451
2015-03-01T03:58:01.573Z,457
2015-03-01T03:58:20.237Z,454
2015-03-01T03:58:38.929Z,458
2015-03-01T03:58:57.591Z,458
2015-03-01T03:59:16.278Z,452
2015-03-01T03:59:34.946Z,454
2015-03-01T03:59:53.628Z,454
2015-03-01T04:00:12.312Z,448
2015-03-01T04:00:31.010Z,448
2015-03-01T04:00:49.685Z,450
2015-03-01T04:01:08.372Z,451
2015-03-01T04:01:27.060Z,452
2015-03-01T04:01:45.722Z,447
2015-03-01T04:02:04.408Z,449
2015-03-01T04:02:23.083Z,457
2015-03-01T04:02:41.761Z,452
2015-03-01T04:03:00.448Z,452
2015-03-01T04:03:19.106Z,452
2015-03-01T04:03:37.795Z,456
2015-03-01T04:03:56.461Z,463
2015-03-01T04:04:15.162Z,455
2015-03-01T04:04:33.847Z,452
2015-03-01T04:04:52.509Z,449
2015-03-01T04:05:11.202Z,457
2015-03-01T04:05:29.875Z,451
2015-03-01T04:05:48.549Z,456
2015-03-01T04:06:07.214Z,450
2015-03-01T04:06:25.886Z,448
2015-03-01T04:06:44.563Z,452
2015-03-01T04:07:03.258Z,457
2015-03-01T04:07:21.920Z,454
2015-03-01T04:07:40.615Z,457
2015-03-01T04:07:59.298Z,453
2015-03-01T04:08:17.807Z,452
2015-03-01T04:08:36.506Z,456
2015-03-01T04:08:55.170Z,452
2015-03-01T04:09:13.867Z,451
2015-03-01T04:09:32.530Z,459
2015-03-01T04:09:51.220Z,454
2015-03-01T04:10:09.905Z,451
2015-03-01T04:10:28.576Z,459
2015-03-01T04:10:47.260Z,448
2015-03-01T04:11:05.943Z,452
2015-03-01T04:11:24.615Z,457
2015-03-01T04:11:43.301Z,454
2015-03-01T04:12:01.967Z,450
2015-03-01T04:12:20.666Z,449
2015-03-01T04:12:39.352Z,453
2015-03-01T04:12:58.016Z,452
2015-03-01T04:13:16.691Z,457
2015-03-01T04:13:35.378Z,454
2015-03-01T04:13:54.063Z,452
2015-03-01T04:14:12.731Z,449
2015-03-01T04:14:31.422Z,455
2015-03-01T04:14:50.112Z,458
2015-03-01T04:15:08.776Z,453
2015-03-01T04:15:27.458Z,458
2015-03-01T04:15:46.143Z,458
2015-03-01T04:16:04.807Z,457
2015-03-01T04:16:23.507Z,451
2015-03-01T04:16:42.188Z,451
2015-03-01T04:17:00.870Z,453
2015-03-01T04:17:19.530Z,455